createdAt,value
2023-05-08T00:03:35.892Z,59042.03
2023-05-08T00:08:37.656Z,59042.03
2023-05-08T00:13:41.223Z,59042.03
2023-05-08T00:18:43.298Z,59042.03
2023-05-08T00:23:44.814Z,59042.03
2023-05-08T00:28:46.767Z,59042.03
2023-05-08T00:33:48.427Z,59042.03
2023-05-08T00:38:50.824Z,59042.03
2023-05-08T00:43:53.440Z,59042.03
2023-05-08T00:48:55.053Z,59042.03
2023-05-08T00:53:56.669Z,59042.03
2023-05-08T00:58:58.732Z,59042.03
2023-05-08T01:04:00.365Z,59042.03
2023-05-08T01:09:02.208Z,59042.03
2023-05-08T01:14:27.842Z,59042.03
2023-05-08T01:19:52.678Z,59042.03
2023-05-08T01:25:22.120Z,59042.03
2023-05-08T01:30:44.943Z,59042.03
2023-05-08T01:36:28.333Z,59042.03
2023-05-08T01:41:34.266Z,59042.03
2023-05-08T01:46:35.844Z,59042.03
2023-05-08T01:51:43.703Z,59042.03
2023-05-08T01:56:47.909Z,59042.03
2023-05-08T02:01:53.210Z,59042.03
2023-05-08T02:06:57.266Z,59042.03
2023-05-08T02:12:02.907Z,59042.03
2023-05-08T02:17:08.823Z,59042.03
2023-05-08T02:22:10.906Z,59042.03
2023-05-08T02:27:14.052Z,59042.03
2023-05-08T02:32:17.264Z,59042.03
2023-05-08T02:37:21.658Z,59042.03
2023-05-08T02:42:23.503Z,59042.03
2023-05-08T02:47:52.951Z,59042.03
2023-05-08T02:53:03.701Z,59042.03
2023-05-08T02:58:22.442Z,59042.03
2023-05-08T03:03:36.311Z,59042.03
2023-05-08T03:08:39.755Z,59042.03
2023-05-08T03:13:45.718Z,59042.03
2023-05-08T03:18:56.918Z,59042.03
2023-05-08T03:24:00.612Z,59042.03
2023-05-08T03:29:02.994Z,59042.03
2023-05-08T03:34:09.675Z,59042.03
2023-05-08T03:39:12.078Z,59042.03
2023-05-08T03:44:15.453Z,59042.03
2023-05-08T03:49:18.263Z,59042.03
2023-05-08T03:54:25.246Z,59042.03
2023-05-08T04:00:05.578Z,59042.03
2023-05-08T04:05:50.044Z,59042.03
2023-05-08T04:11:25.206Z,59042.03
2023-05-08T04:16:28.408Z,59042.03
2023-05-08T04:21:33.984Z,59042.03
2023-05-08T04:26:37.121Z,59042.03
2023-05-08T04:31:40.286Z,59042.03
2023-05-08T04:36:42.575Z,59042.03
2023-05-08T04:41:44.387Z,59042.03
2023-05-08T04:46:47.026Z,59042.03
2023-05-08T04:51:48.751Z,59042.03
2023-05-08T04:56:50.556Z,59042.03
2023-05-08T05:01:52.202Z,59042.03
2023-05-08T05:06:54.313Z,59042.03
2023-05-08T05:11:57.956Z,59042.03
2023-05-08T05:16:59.862Z,59042.03
2023-05-08T05:22:01.990Z,59042.03
2023-05-08T05:27:05.995Z,59042.03
2023-05-08T05:32:09.153Z,59042.03
2023-05-08T05:37:11.405Z,59042.03
2023-05-08T05:42:13.117Z,59042.03
2023-05-08T05:47:14.913Z,59042.03
2023-05-08T05:52:17.180Z,59042.03
2023-05-08T05:57:19.721Z,59042.03
2023-05-08T06:02:21.505Z,59042.03
2023-05-08T06:07:23.133Z,59042.03
2023-05-08T06:12:24.809Z,59042.03
2023-05-08T06:17:26.911Z,59042.03
2023-05-08T06:22:29.930Z,59042.03
2023-05-08T06:27:31.660Z,59042.03
2023-05-08T06:32:33.174Z,59042.03
2023-05-08T06:37:34.651Z,59042.03
2023-05-08T06:42:36.450Z,59042.03
2023-05-08T06:47:37.941Z,74353.53
2023-05-08T06:52:39.519Z,74304.69
2023-05-08T06:57:41.078Z,74265.03
2023-05-08T07:02:42.594Z,74255.88
2023-05-08T07:07:44.109Z,74223.81
2023-05-08T07:12:45.706Z,74146.00
2023-05-08T07:17:47.413Z,74109.38
2023-05-08T07:22:48.973Z,74075.81
2023-05-08T07:27:50.324Z,74030.03
2023-05-08T07:32:52.222Z,74022.41
2023-05-08T07:37:53.791Z,74040.72
2023-05-08T07:42:55.235Z,74022.41
2023-05-08T07:48:00.011Z,74092.59
2023-05-08T07:53:02.142Z,74008.66
2023-05-08T07:58:03.752Z,73941.53
2023-05-08T08:03:05.281Z,73859.13
2023-05-08T08:08:06.817Z,73831.66
2023-05-08T08:13:08.327Z,73821.00
2023-05-08T08:18:09.787Z,73798.09
2023-05-08T08:23:11.307Z,73839.28
2023-05-08T08:28:12.784Z,73854.56
2023-05-08T08:33:15.013Z,73822.50
2023-05-08T08:38:17.826Z,73825.56
2023-05-08T08:43:19.341Z,73871.34
2023-05-08T08:48:25.836Z,73859.13
2023-05-08T08:53:34.937Z,73775.22
2023-05-08T08:58:40.843Z,73773.69
2023-05-08T09:03:42.562Z,73743.16
2023-05-08T09:08:44.832Z,73671.44
2023-05-08T09:13:46.415Z,73669.94
2023-05-08T09:18:48.343Z,73753.84
2023-05-08T09:23:59.614Z,73814.88
2023-05-08T09:29:18.218Z,73827.09
2023-05-08T09:34:29.280Z,73758.44
2023-05-08T09:39:30.825Z,73734.00
2023-05-08T09:44:54.358Z,73694.34
2023-05-08T09:50:10.604Z,73669.94
2023-05-08T09:55:12.697Z,73665.34
2023-05-08T10:00:15.049Z,73685.19
2023-05-08T10:05:23.016Z,73639.41
2023-05-08T10:10:26.694Z,73601.25
2023-05-08T10:15:29.184Z,73685.19
2023-05-08T10:20:31.237Z,73662.28
2023-05-08T10:25:34.624Z,73659.25
2023-05-08T10:30:41.419Z,73676.03
2023-05-08T10:35:45.023Z,73634.81
2023-05-08T10:40:48.274Z,73605.84
2023-05-08T10:45:49.879Z,73628.72
2023-05-08T10:51:02.437Z,73561.59
2023-05-08T10:56:04.801Z,73590.56
2023-05-08T11:01:09.158Z,73599.72
2023-05-08T11:06:11.148Z,73561.59
2023-05-08T11:11:27.870Z,73534.13
2023-05-08T11:16:54.964Z,73578.38
2023-05-08T11:22:15.726Z,73549.38
2023-05-08T11:27:17.507Z,73512.75
2023-05-08T11:32:19.076Z,73518.88
2023-05-08T11:37:22.476Z,73605.84
2023-05-08T11:42:29.549Z,73502.06
2023-05-08T11:47:45.097Z,73459.34
2023-05-08T11:52:46.495Z,73497.50
2023-05-08T11:57:48.265Z,73463.94
2023-05-08T12:02:50.042Z,73473.09
2023-05-08T12:07:51.686Z,73505.13
2023-05-08T12:12:53.241Z,73479.19
2023-05-08T12:18:02.748Z,73477.66
2023-05-08T12:23:04.437Z,73416.63
2023-05-08T12:28:11.820Z,73450.19
2023-05-08T12:33:14.809Z,73421.19
2023-05-08T12:38:16.426Z,73434.94
2023-05-08T12:43:17.926Z,73390.69
2023-05-08T12:48:20.047Z,73393.75
2023-05-08T12:53:21.948Z,73334.22
2023-05-08T12:58:49.536Z,73317.44
2023-05-08T13:04:01.517Z,73366.28
2023-05-08T13:09:04.398Z,73376.94
2023-05-08T13:14:05.915Z,73349.50
2023-05-08T13:19:07.385Z,73283.88
2023-05-08T13:24:08.981Z,73283.88
2023-05-08T13:29:10.590Z,73259.47
2023-05-08T13:34:12.062Z,73274.72
2023-05-08T13:39:13.511Z,73276.25
2023-05-08T13:44:15.008Z,73297.59
2023-05-08T13:49:18.106Z,73309.81
2023-05-08T13:54:19.567Z,73312.88
2023-05-08T13:59:21.099Z,73303.72
2023-05-08T14:04:22.655Z,73264.03
2023-05-08T14:09:24.260Z,73270.13
2023-05-08T14:14:25.768Z,73296.09
2023-05-08T14:19:27.269Z,73288.44
2023-05-08T14:24:28.763Z,73296.09
2023-05-08T14:29:30.267Z,73259.47
2023-05-08T14:34:31.779Z,73248.78
2023-05-08T14:39:33.272Z,73256.41
2023-05-08T14:44:34.882Z,73254.88
2023-05-08T14:49:38.483Z,73241.16
2023-05-08T14:54:40.634Z,73230.47
2023-05-08T14:59:49.306Z,73225.88
2023-05-08T15:04:56.371Z,73221.31
2023-05-08T15:09:57.849Z,73204.53
2023-05-08T15:15:01.609Z,73221.31
2023-05-08T15:20:06.040Z,73175.53
2023-05-08T15:25:07.890Z,73196.91
2023-05-08T15:30:09.868Z,73192.31
2023-05-08T15:35:11.412Z,73203.00
2023-05-08T15:40:13.113Z,73210.63
2023-05-08T15:45:16.053Z,73215.22
2023-05-08T15:50:17.791Z,73199.94
2023-05-08T15:55:20.374Z,73164.84
2023-05-08T16:00:25.145Z,73184.69
2023-05-08T16:05:28.966Z,73193.84
2023-05-08T16:10:30.548Z,73175.53
2023-05-08T16:15:32.021Z,73190.78
2023-05-08T16:20:35.738Z,73209.09
2023-05-08T16:25:37.794Z,73198.44
2023-05-08T16:30:39.274Z,73163.31
2023-05-08T16:35:40.761Z,73178.59
2023-05-08T16:40:42.814Z,73163.31
2023-05-08T16:45:44.293Z,73190.78
2023-05-08T16:50:45.752Z,73201.47
2023-05-08T16:55:47.505Z,73193.84
2023-05-08T17:00:49.502Z,73218.25
2023-05-08T17:05:51.157Z,73218.25
2023-05-08T17:10:54.116Z,73216.72
2023-05-08T17:15:55.649Z,73242.69
2023-05-08T17:20:57.145Z,73264.03
2023-05-08T17:25:59.673Z,73282.34
2023-05-08T17:31:01.364Z,73326.59
2023-05-08T17:36:02.863Z,73360.16
2023-05-08T17:41:04.357Z,73373.91
2023-05-08T17:46:07.115Z,73392.22
2023-05-08T17:51:12.034Z,73407.47
2023-05-08T17:56:13.841Z,73416.63
2023-05-08T18:01:15.396Z,73425.78
2023-05-08T18:06:20.280Z,73431.88
2023-05-08T18:11:24.745Z,73439.50
2023-05-08T18:16:26.300Z,73445.63
2023-05-08T18:21:28.754Z,73451.72
2023-05-08T18:26:30.663Z,73460.88
2023-05-08T18:31:32.439Z,73476.13
2023-05-08T18:36:33.933Z,73485.28
2023-05-08T18:41:36.464Z,73497.50
2023-05-08T18:46:38.065Z,73512.75
2023-05-08T18:51:39.563Z,73528.00
2023-05-08T18:56:41.201Z,73541.75
2023-05-08T19:01:43.008Z,73563.13
2023-05-08T19:06:44.608Z,73575.31
2023-05-08T19:11:46.116Z,73586.00
2023-05-08T19:16:47.685Z,73598.22
2023-05-08T19:21:49.147Z,73605.84
2023-05-08T19:26:50.770Z,73616.53
2023-05-08T19:31:52.317Z,73621.09
2023-05-08T19:36:53.775Z,73633.31
2023-05-08T19:41:56.210Z,73642.47
2023-05-08T19:46:57.758Z,73656.19
2023-05-08T19:51:59.324Z,73663.81
2023-05-08T19:57:00.889Z,73669.94
2023-05-08T20:02:02.681Z,73686.72
2023-05-08T20:07:04.211Z,73688.22
2023-05-08T20:12:06.047Z,73698.91
2023-05-08T20:17:07.543Z,73703.50
2023-05-08T20:22:09.062Z,73717.22
2023-05-08T20:27:11.020Z,73720.28
2023-05-08T20:32:14.843Z,73724.84
2023-05-08T20:37:16.564Z,73723.34
2023-05-08T20:42:18.154Z,73734.00
2023-05-08T20:47:19.696Z,73735.53
2023-05-08T20:52:21.306Z,73737.06
2023-05-08T20:57:22.797Z,73743.16
2023-05-08T21:02:24.627Z,73743.16
2023-05-08T21:07:26.211Z,73740.13
2023-05-08T21:12:27.674Z,73741.63
2023-05-08T21:17:29.177Z,73743.16
2023-05-08T21:22:32.930Z,73747.75
2023-05-08T21:27:48.294Z,73746.22
2023-05-08T21:32:50.074Z,73752.31
2023-05-08T21:37:53.868Z,73758.44
2023-05-08T21:42:56.041Z,73770.63
2023-05-08T21:47:58.549Z,73778.25
2023-05-08T21:53:00.062Z,73781.31
2023-05-08T21:58:01.734Z,73796.56
2023-05-08T22:03:03.403Z,73804.19
2023-05-08T22:08:05.373Z,73813.34
2023-05-08T22:13:07.383Z,73819.47
2023-05-08T22:18:09.093Z,73828.63
2023-05-08T22:23:10.930Z,73842.34
2023-05-08T22:28:12.496Z,73851.50
2023-05-08T22:33:13.961Z,73856.09
2023-05-08T22:38:15.552Z,73863.72
2023-05-08T22:43:17.173Z,73875.91
2023-05-08T22:48:18.671Z,73871.34
2023-05-08T22:53:20.155Z,73886.59
2023-05-08T22:58:21.675Z,73895.75
2023-05-08T23:03:23.428Z,73895.75
2023-05-08T23:08:25.024Z,73898.81
2023-05-08T23:13:26.716Z,73898.81
2023-05-08T23:18:28.297Z,73907.97
2023-05-08T23:23:30.799Z,73911.00
2023-05-08T23:28:35.707Z,73920.16
2023-05-08T23:33:37.162Z,73929.31
2023-05-08T23:38:38.638Z,73932.38
2023-05-08T23:43:40.314Z,73932.38
2023-05-08T23:48:42.070Z,73938.47
2023-05-08T23:53:43.621Z,73935.44
2023-05-08T23:58:45.089Z,73944.59
